Terminal Aerodrome Forecast
Issued by NWS

Home | Current Version | Previous Version | Text Only | Print | Product List | Glossary Off
Versions: 1 2 3 4 5 6 7 8 9 10 11 12 13 14 15 16 17 18 19 20 21 22 23 24 25 26 27 28

000
FTUS45 KGGW 210500
TAFOLF
TAF
KOLF 210520Z 2106/2206 VRB04KT P6SM FEW200
     FM211500 00000KT P6SM -FZRA BKN050
     FM212100 VRB05KT 6SM -RA BKN015 OVC030
     FM220200 30009KT 6SM -RASN BR OVC010=

USA.gov is the U.S. government's official web portal to all federal, state and local government web resources and services.